createdAt,value
2023-05-04T00:00:08.800Z,54.96
2023-05-04T00:02:35.649Z,54.96
2023-05-04T00:05:02.960Z,55.00
2023-05-04T00:07:29.653Z,55.24
2023-05-04T00:09:56.486Z,55.23
2023-05-04T00:12:23.144Z,55.56
2023-05-04T00:14:49.873Z,55.58
2023-05-04T00:17:17.116Z,55.71
2023-05-04T00:19:45.114Z,55.91
2023-05-04T00:22:11.771Z,56.13
2023-05-04T00:24:38.958Z,56.27
2023-05-04T00:27:05.666Z,56.36
2023-05-04T00:29:32.419Z,56.40
2023-05-04T00:31:59.224Z,56.21
2023-05-04T00:34:26.161Z,56.36
2023-05-04T00:36:52.981Z,56.80
2023-05-04T00:39:19.851Z,56.84
2023-05-04T00:41:46.609Z,56.78
2023-05-04T00:44:13.367Z,57.35
2023-05-04T00:46:40.890Z,56.94
2023-05-04T00:49:08.058Z,57.45
2023-05-04T00:51:35.136Z,57.22
2023-05-04T00:54:01.819Z,57.36
2023-05-04T00:56:29.220Z,57.43
2023-05-04T00:58:58.038Z,57.34
2023-05-04T01:01:25.472Z,57.73
2023-05-04T01:03:54.089Z,57.82
2023-05-04T01:06:45.798Z,58.15
2023-05-04T01:09:17.307Z,58.07
2023-05-04T01:11:49.895Z,58.63
2023-05-04T01:14:17.288Z,58.46
2023-05-04T01:16:43.984Z,58.76
2023-05-04T01:19:10.742Z,58.69
2023-05-04T01:21:38.888Z,58.73
2023-05-04T01:24:06.637Z,58.59
2023-05-04T01:26:41.922Z,58.53
2023-05-04T01:29:18.619Z,58.78
2023-05-04T01:31:46.623Z,58.86
2023-05-04T01:34:14.256Z,59.08
2023-05-04T01:36:41.565Z,59.27
2023-05-04T01:39:08.606Z,59.29
2023-05-04T01:41:36.178Z,59.76
2023-05-04T01:44:04.187Z,59.77
2023-05-04T01:46:30.980Z,60.33
2023-05-04T01:48:57.878Z,60.30
2023-05-04T01:51:24.655Z,60.37
2023-05-04T01:53:51.371Z,60.52
2023-05-04T01:56:18.096Z,60.88
2023-05-04T01:58:44.814Z,60.91
2023-05-04T02:01:11.528Z,60.97
2023-05-04T02:03:38.354Z,61.26
2023-05-04T02:06:05.234Z,61.12
2023-05-04T02:08:32.055Z,61.26
2023-05-04T02:10:58.733Z,61.45
2023-05-04T02:13:25.477Z,61.59
2023-05-04T02:15:52.249Z,61.53
2023-05-04T02:18:18.895Z,62.04
2023-05-04T02:20:45.566Z,61.88
2023-05-04T02:23:12.324Z,61.87
2023-05-04T02:25:42.241Z,61.58
2023-05-04T02:28:08.898Z,62.01
2023-05-04T02:30:35.989Z,62.61
2023-05-04T02:33:02.762Z,62.66
2023-05-04T02:35:29.908Z,62.59
2023-05-04T02:37:56.590Z,62.93
2023-05-04T02:40:23.246Z,63.10
2023-05-04T02:42:50.127Z,63.23
2023-05-04T02:45:17.076Z,63.02
2023-05-04T02:47:43.787Z,63.46
2023-05-04T02:50:10.693Z,63.84
2023-05-04T02:52:37.413Z,63.78
2023-05-04T02:55:04.467Z,63.80
2023-05-04T02:57:31.313Z,64.03
2023-05-04T02:59:58.019Z,63.96
2023-05-04T03:02:24.805Z,64.22
2023-05-04T03:04:51.649Z,64.20
2023-05-04T03:07:18.413Z,64.53
2023-05-04T03:09:46.846Z,64.55
2023-05-04T03:12:14.552Z,64.85
2023-05-04T03:14:41.281Z,64.71
2023-05-04T03:17:08.142Z,64.87
2023-05-04T03:19:34.850Z,64.96
2023-05-04T03:22:01.520Z,65.17
2023-05-04T03:24:28.186Z,65.23
2023-05-04T03:26:55.006Z,65.21
2023-05-04T03:29:21.696Z,65.85
2023-05-04T03:31:48.442Z,65.48
2023-05-04T03:34:15.250Z,65.65
2023-05-04T03:36:41.985Z,65.89
2023-05-04T03:39:08.765Z,66.06
2023-05-04T03:41:35.462Z,66.04
2023-05-04T03:44:02.111Z,66.00
2023-05-04T03:46:28.944Z,66.32
2023-05-04T03:48:55.701Z,66.38
2023-05-04T03:51:22.447Z,66.71
2023-05-04T03:53:49.173Z,66.57
2023-05-04T03:56:15.890Z,67.04
2023-05-04T03:58:42.630Z,67.25
2023-05-04T04:01:09.315Z,67.41
2023-05-04T04:03:36.812Z,67.08
2023-05-04T04:06:08.691Z,67.27
2023-05-04T04:08:35.618Z,67.10
2023-05-04T04:11:02.561Z,67.23
2023-05-04T04:13:29.270Z,67.09
2023-05-04T04:15:56.080Z,67.10
2023-05-04T04:18:25.813Z,67.36
2023-05-04T04:20:52.525Z,67.19
2023-05-04T04:23:19.540Z,67.26
2023-05-04T04:25:47.002Z,67.37
2023-05-04T04:28:14.455Z,67.22
2023-05-04T04:30:41.825Z,67.73
2023-05-04T04:33:09.626Z,67.77
2023-05-04T04:35:42.351Z,67.97
2023-05-04T04:38:09.409Z,67.85
2023-05-04T04:40:36.459Z,68.07
2023-05-04T04:43:03.533Z,68.21
2023-05-04T04:45:31.769Z,68.14
2023-05-04T04:47:59.832Z,68.45
2023-05-04T04:50:26.672Z,68.51
2023-05-04T04:52:53.472Z,68.45
2023-05-04T04:55:20.504Z,68.33
2023-05-04T04:57:47.278Z,68.08
2023-05-04T05:00:14.659Z,68.26
2023-05-04T05:02:41.453Z,68.41
2023-05-04T05:05:08.735Z,68.55
2023-05-04T05:07:36.565Z,68.46
2023-05-04T05:10:03.754Z,68.64
2023-05-04T05:12:31.177Z,68.51
2023-05-04T05:14:57.883Z,68.53
2023-05-04T05:17:26.707Z,68.62
2023-05-04T05:19:54.020Z,68.35
2023-05-04T05:22:20.790Z,68.31
2023-05-04T05:24:47.586Z,68.47
2023-05-04T05:27:14.338Z,68.27
2023-05-04T05:29:41.059Z,68.24
2023-05-04T05:32:07.855Z,68.03
2023-05-04T05:34:34.508Z,68.04
2023-05-04T05:37:01.243Z,67.65
2023-05-04T05:39:34.597Z,67.45
2023-05-04T05:42:02.122Z,67.43
2023-05-04T05:44:28.911Z,67.61
2023-05-04T05:46:56.372Z,67.54
2023-05-04T05:49:23.133Z,67.23
2023-05-04T05:51:49.949Z,66.97
2023-05-04T05:54:16.724Z,66.93
2023-05-04T05:56:43.510Z,66.76
2023-05-04T05:59:15.973Z,66.63
2023-05-04T06:01:42.951Z,66.53
2023-05-04T06:04:09.871Z,66.64
2023-05-04T06:06:36.859Z,66.91
2023-05-04T06:09:03.816Z,66.12
2023-05-04T06:11:32.027Z,66.11
2023-05-04T06:13:58.761Z,66.31
2023-05-04T06:16:25.621Z,66.09
2023-05-04T06:18:58.755Z,65.89
2023-05-04T06:21:25.449Z,65.98
2023-05-04T06:23:52.125Z,65.45
2023-05-04T06:26:20.298Z,65.55
2023-05-04T06:28:52.113Z,65.16
2023-05-04T06:31:18.811Z,65.38
2023-05-04T06:33:45.663Z,65.33
2023-05-04T06:36:13.235Z,65.06
2023-05-04T06:38:39.912Z,65.46
2023-05-04T06:41:06.965Z,64.99
2023-05-04T06:43:33.956Z,64.97
2023-05-04T06:46:04.163Z,64.90
2023-05-04T06:48:31.869Z,64.93
2023-05-04T06:51:03.629Z,64.17
2023-05-04T06:53:30.413Z,64.31
2023-05-04T06:55:57.117Z,63.87
2023-05-04T06:58:23.852Z,64.18
2023-05-04T07:00:51.475Z,64.16
2023-05-04T07:03:18.346Z,63.94
2023-05-04T07:05:45.653Z,63.52
2023-05-04T07:08:12.676Z,63.16
2023-05-04T07:10:39.655Z,63.01
2023-05-04T07:13:06.596Z,62.89
2023-05-04T07:15:34.117Z,62.55
2023-05-04T07:18:01.532Z,62.38
2023-05-04T07:20:28.812Z,61.48
2023-05-04T07:22:57.261Z,61.41
2023-05-04T07:25:27.813Z,61.56
2023-05-04T07:27:54.882Z,61.58
2023-05-04T07:30:21.814Z,61.05
2023-05-04T07:32:48.678Z,60.88
2023-05-04T07:35:15.641Z,60.16
2023-05-04T07:37:42.425Z,59.99
2023-05-04T07:40:10.584Z,59.81
2023-05-04T07:42:37.308Z,60.45
2023-05-04T07:45:04.606Z,60.16
2023-05-04T07:47:31.593Z,60.16
2023-05-04T07:49:58.283Z,59.77
2023-05-04T07:52:24.966Z,59.92
2023-05-04T07:54:53.596Z,59.67
2023-05-04T07:57:20.943Z,59.86
2023-05-04T07:59:47.764Z,59.24
2023-05-04T08:02:14.490Z,59.22
2023-05-04T08:04:41.293Z,58.74
2023-05-04T08:07:07.997Z,58.91
2023-05-04T08:09:34.742Z,58.13
2023-05-04T08:12:01.527Z,57.64
2023-05-04T08:14:28.184Z,57.83
2023-05-04T08:16:55.129Z,57.76
2023-05-04T08:19:22.402Z,57.56
2023-05-04T08:21:49.138Z,57.65
2023-05-04T08:24:17.843Z,57.24
2023-05-04T08:26:49.574Z,57.16
2023-05-04T08:29:22.719Z,56.88
2023-05-04T08:31:49.744Z,56.56
2023-05-04T08:34:16.852Z,56.58
2023-05-04T08:36:48.077Z,55.75
2023-05-04T08:39:32.115Z,55.54
2023-05-04T08:41:58.892Z,55.61
2023-05-04T08:44:25.994Z,55.07
2023-05-04T08:46:53.866Z,54.33
2023-05-04T08:49:21.401Z,54.02
2023-05-04T08:51:50.754Z,53.82
2023-05-04T08:54:18.015Z,53.57
2023-05-04T08:56:48.112Z,52.75
2023-05-04T08:59:20.781Z,52.02
2023-05-04T09:01:51.400Z,51.23
2023-05-04T09:04:18.864Z,51.16
2023-05-04T09:06:47.677Z,50.78
2023-05-04T09:09:18.835Z,50.47
2023-05-04T09:11:45.685Z,49.58
2023-05-04T09:14:15.029Z,49.54
2023-05-04T09:16:41.877Z,48.80
2023-05-04T09:19:19.220Z,48.37
2023-05-04T09:21:47.312Z,48.00
2023-05-04T09:24:14.072Z,47.19
2023-05-04T09:26:40.799Z,47.30
2023-05-04T09:29:15.112Z,46.22
2023-05-04T09:31:43.853Z,46.14
2023-05-04T09:34:10.706Z,45.81
2023-05-04T09:36:38.352Z,45.89
2023-05-04T09:39:17.798Z,45.61
2023-05-04T09:41:44.647Z,45.75
2023-05-04T09:44:26.914Z,44.81
2023-05-04T09:46:58.177Z,43.87
2023-05-04T09:49:39.194Z,43.60
2023-05-04T09:52:07.177Z,44.34
2023-05-04T09:54:36.088Z,43.88
2023-05-04T09:57:11.858Z,43.54
2023-05-04T09:59:39.437Z,42.88
2023-05-04T10:02:14.554Z,41.97
2023-05-04T10:04:49.483Z,41.85
2023-05-04T10:07:16.989Z,42.10
2023-05-04T10:09:43.822Z,41.07
2023-05-04T10:12:10.491Z,41.30
2023-05-04T10:14:37.288Z,41.36
2023-05-04T10:17:16.266Z,40.98
2023-05-04T10:19:47.258Z,41.25
2023-05-04T10:22:41.622Z,40.59
2023-05-04T10:25:22.716Z,40.57
2023-05-04T10:28:16.949Z,39.95
2023-05-04T10:30:43.801Z,39.87
2023-05-04T10:33:10.768Z,39.72
2023-05-04T10:35:38.867Z,39.92
2023-05-04T10:38:06.593Z,39.85
2023-05-04T10:40:33.360Z,40.28
2023-05-04T10:43:06.480Z,39.59
2023-05-04T10:45:44.423Z,39.41
2023-05-04T10:48:11.313Z,38.89
2023-05-04T10:50:43.233Z,39.08
2023-05-04T10:53:10.163Z,38.59
2023-05-04T10:55:42.056Z,38.38
2023-05-04T10:58:16.558Z,39.26
2023-05-04T11:00:45.204Z,38.64
2023-05-04T11:03:12.742Z,38.99
2023-05-04T11:05:44.306Z,38.37
2023-05-04T11:08:19.128Z,37.84
2023-05-04T11:10:59.692Z,37.93
2023-05-04T11:13:27.106Z,37.12
2023-05-04T11:15:54.449Z,36.75
2023-05-04T11:18:32.735Z,37.43
2023-05-04T11:20:59.706Z,37.33
2023-05-04T11:23:27.038Z,37.86
2023-05-04T11:25:54.298Z,36.04
2023-05-04T11:28:35.238Z,35.96
2023-05-04T11:31:12.946Z,35.87
2023-05-04T11:33:55.047Z,35.88
2023-05-04T11:36:22.874Z,35.58
2023-05-04T11:38:50.095Z,36.10
2023-05-04T11:41:16.919Z,35.99
2023-05-04T11:43:45.332Z,35.52
2023-05-04T11:46:13.072Z,35.64
2023-05-04T11:48:39.933Z,34.84
2023-05-04T11:51:06.905Z,34.34
2023-05-04T11:53:38.752Z,34.51
2023-05-04T11:56:11.674Z,34.50
2023-05-04T11:58:38.522Z,34.08
2023-05-04T12:01:05.563Z,33.49
2023-05-04T12:03:52.460Z,34.01
2023-05-04T12:06:40.634Z,34.14
2023-05-04T12:09:07.514Z,34.55
2023-05-04T12:11:35.101Z,34.86
2023-05-04T12:14:07.145Z,34.44
2023-05-04T12:16:34.162Z,34.09
2023-05-04T12:19:05.301Z,34.17
2023-05-04T12:21:32.905Z,33.97
2023-05-04T12:24:00.265Z,34.09
2023-05-04T12:26:27.823Z,34.04
2023-05-04T12:28:54.707Z,33.22
2023-05-04T12:31:24.846Z,32.75
2023-05-04T12:33:51.969Z,33.13
2023-05-04T12:36:18.991Z,32.38
2023-05-04T12:38:51.785Z,31.46
2023-05-04T12:41:18.527Z,32.65
2023-05-04T12:43:45.262Z,31.91
2023-05-04T12:46:12.076Z,31.25
2023-05-04T12:48:39.070Z,31.18
2023-05-04T12:51:06.006Z,31.09
2023-05-04T12:53:32.795Z,30.34
2023-05-04T12:56:00.881Z,30.00
2023-05-04T12:58:28.179Z,29.79
2023-05-04T13:00:55.968Z,28.81
2023-05-04T13:03:22.902Z,29.22
2023-05-04T13:05:50.031Z,29.21
2023-05-04T13:08:20.071Z,28.94
2023-05-04T13:10:47.411Z,29.22
2023-05-04T13:13:16.360Z,28.82
2023-05-04T13:15:44.157Z,28.37
2023-05-04T13:18:10.989Z,28.93
2023-05-04T13:20:39.187Z,28.91
2023-05-04T13:23:05.875Z,28.18
2023-05-04T13:25:38.713Z,28.31
2023-05-04T13:28:05.441Z,28.09
2023-05-04T13:30:32.174Z,28.62
2023-05-04T13:32:58.908Z,28.37
2023-05-04T13:35:25.810Z,28.44
2023-05-04T13:37:52.796Z,28.56
2023-05-04T13:40:19.480Z,28.05
2023-05-04T13:42:46.296Z,27.94
2023-05-04T13:45:13.419Z,28.29
2023-05-04T13:47:40.847Z,27.29
2023-05-04T13:50:08.456Z,27.07
2023-05-04T13:52:35.557Z,27.38
2023-05-04T13:55:02.541Z,27.42
2023-05-04T13:57:29.390Z,27.15
2023-05-04T14:00:06.493Z,26.17
2023-05-04T14:02:35.105Z,25.91
2023-05-04T14:05:02.866Z,25.74
2023-05-04T14:07:29.890Z,25.85
2023-05-04T14:09:56.799Z,25.94
2023-05-04T14:12:24.325Z,26.10
2023-05-04T14:14:51.084Z,26.40
2023-05-04T14:17:18.492Z,26.33
2023-05-04T14:19:45.863Z,25.95
2023-05-04T14:22:12.662Z,26.37
2023-05-04T14:24:39.459Z,26.34
2023-05-04T14:27:09.707Z,26.48
2023-05-04T14:29:36.575Z,26.25
2023-05-04T14:32:03.471Z,26.24
2023-05-04T14:34:30.244Z,26.76
2023-05-04T14:36:57.100Z,26.49
2023-05-04T14:39:23.817Z,27.07
2023-05-04T14:41:52.546Z,26.97
2023-05-04T14:44:20.526Z,26.57
2023-05-04T14:46:47.509Z,26.59
2023-05-04T14:49:21.588Z,26.61
2023-05-04T14:51:51.730Z,26.33
2023-05-04T14:54:18.657Z,25.48
2023-05-04T14:56:46.418Z,24.84
2023-05-04T14:59:13.816Z,25.09
2023-05-04T15:01:40.541Z,25.32
2023-05-04T15:04:07.343Z,25.65
2023-05-04T15:06:39.043Z,25.46
2023-05-04T15:09:05.804Z,25.25
2023-05-04T15:11:32.744Z,25.24
2023-05-04T15:13:59.450Z,24.79
2023-05-04T15:16:32.426Z,24.72
2023-05-04T15:18:59.617Z,24.89
2023-05-04T15:21:26.547Z,25.05
2023-05-04T15:23:53.430Z,25.25
2023-05-04T15:26:20.482Z,24.87
2023-05-04T15:28:51.496Z,24.69
2023-05-04T15:31:19.511Z,24.86
2023-05-04T15:33:46.297Z,24.70
2023-05-04T15:36:12.993Z,24.83
2023-05-04T15:38:39.798Z,25.15
2023-05-04T15:41:06.883Z,25.33
2023-05-04T15:43:34.419Z,25.41
2023-05-04T15:46:01.320Z,25.28
2023-05-04T15:48:28.123Z,25.19
2023-05-04T15:50:55.046Z,25.60
2023-05-04T15:53:21.905Z,25.59
2023-05-04T15:55:48.761Z,25.97
2023-05-04T15:58:15.469Z,25.89
2023-05-04T16:00:42.355Z,25.79
2023-05-04T16:03:09.330Z,25.35
2023-05-04T16:05:36.598Z,25.39
2023-05-04T16:08:03.472Z,25.65
2023-05-04T16:10:30.252Z,25.24
2023-05-04T16:12:57.177Z,25.48
2023-05-04T16:15:24.107Z,25.52
2023-05-04T16:17:50.852Z,25.53
2023-05-04T16:20:17.541Z,26.02
2023-05-04T16:22:44.256Z,25.99
2023-05-04T16:25:11.574Z,26.15
2023-05-04T16:27:39.296Z,25.58
2023-05-04T16:30:06.880Z,25.92
2023-05-04T16:32:33.726Z,26.20
2023-05-04T16:35:00.562Z,26.01
2023-05-04T16:37:27.282Z,26.07
2023-05-04T16:39:54.520Z,26.60
2023-05-04T16:42:21.863Z,26.14
2023-05-04T16:44:48.709Z,25.97
2023-05-04T16:47:15.449Z,24.79
2023-05-04T16:49:42.571Z,24.61
2023-05-04T16:52:09.334Z,24.45
2023-05-04T16:54:36.354Z,24.73
2023-05-04T16:57:03.308Z,24.13
2023-05-04T16:59:30.101Z,24.52
2023-05-04T17:01:58.993Z,24.16
2023-05-04T17:04:27.703Z,24.37
2023-05-04T17:06:54.454Z,24.69
2023-05-04T17:09:21.177Z,25.34
2023-05-04T17:11:48.117Z,25.44
2023-05-04T17:14:14.829Z,25.56
2023-05-04T17:16:42.133Z,25.49
2023-05-04T17:19:10.888Z,25.47
2023-05-04T17:21:37.975Z,25.58
2023-05-04T17:24:04.777Z,26.25
2023-05-04T17:26:31.580Z,27.35
2023-05-04T17:28:58.456Z,27.17
2023-05-04T17:31:25.247Z,26.83
2023-05-04T17:33:52.296Z,27.58
2023-05-04T17:36:19.142Z,27.60
2023-05-04T17:38:45.869Z,28.05
2023-05-04T17:41:12.718Z,28.42
2023-05-04T17:43:39.503Z,28.95
2023-05-04T17:46:06.614Z,28.73
2023-05-04T17:48:33.458Z,29.08
2023-05-04T17:51:00.259Z,29.30
2023-05-04T17:53:30.064Z,29.41
2023-05-04T17:55:56.815Z,29.56
2023-05-04T17:58:23.583Z,29.43
2023-05-04T18:00:52.825Z,30.00
2023-05-04T18:03:20.447Z,29.74
2023-05-04T18:05:47.295Z,30.33
2023-05-04T18:08:14.173Z,30.38
2023-05-04T18:10:41.354Z,30.50
2023-05-04T18:13:08.215Z,30.65
2023-05-04T18:15:36.376Z,30.63
2023-05-04T18:18:03.192Z,31.74
2023-05-04T18:20:29.965Z,31.90
2023-05-04T18:22:57.125Z,31.82
2023-05-04T18:25:24.006Z,31.83
2023-05-04T18:27:50.734Z,32.44
2023-05-04T18:30:17.518Z,31.90
2023-05-04T18:32:44.209Z,32.38
2023-05-04T18:35:11.018Z,32.40
2023-05-04T18:37:37.740Z,32.90
2023-05-04T18:40:05.378Z,33.55
2023-05-04T18:42:32.449Z,33.19
2023-05-04T18:44:59.374Z,33.32
2023-05-04T18:47:26.239Z,34.00
2023-05-04T18:49:54.708Z,34.17
2023-05-04T18:52:21.966Z,34.17
2023-05-04T18:54:49.738Z,34.55
2023-05-04T18:57:16.855Z,34.72
2023-05-04T18:59:43.777Z,34.93
2023-05-04T19:02:10.595Z,34.99
2023-05-04T19:04:37.261Z,35.35
2023-05-04T19:07:04.097Z,35.79
2023-05-04T19:09:31.818Z,35.61
2023-05-04T19:11:59.036Z,36.11
2023-05-04T19:14:30.256Z,35.80
2023-05-04T19:16:58.122Z,35.81
2023-05-04T19:19:26.159Z,35.62
2023-05-04T19:21:52.928Z,36.54
2023-05-04T19:24:20.057Z,36.76
2023-05-04T19:26:46.926Z,36.66
2023-05-04T19:29:14.027Z,36.87
2023-05-04T19:31:40.883Z,37.29
2023-05-04T19:34:07.657Z,37.04
2023-05-04T19:36:34.331Z,37.43
2023-05-04T19:39:01.150Z,37.58
2023-05-04T19:41:27.869Z,37.98
2023-05-04T19:43:54.611Z,37.82
2023-05-04T19:46:21.615Z,38.45
2023-05-04T19:48:48.506Z,38.52
2023-05-04T19:51:15.833Z,38.59
2023-05-04T19:53:42.565Z,38.70
2023-05-04T19:56:09.271Z,39.14
2023-05-04T19:58:36.524Z,39.02
2023-05-04T20:01:03.419Z,39.05
2023-05-04T20:03:30.096Z,39.21
2023-05-04T20:05:56.885Z,39.42
2023-05-04T20:08:28.593Z,39.32
2023-05-04T20:10:55.329Z,39.34
2023-05-04T20:13:22.163Z,40.03
2023-05-04T20:15:49.087Z,40.07
2023-05-04T20:18:16.978Z,40.02
2023-05-04T20:20:44.323Z,40.30
2023-05-04T20:23:11.045Z,40.78
2023-05-04T20:25:37.828Z,40.89
2023-05-04T20:28:04.662Z,40.30
2023-05-04T20:30:31.393Z,41.00
2023-05-04T20:32:58.388Z,41.18
2023-05-04T20:35:25.109Z,40.85
2023-05-04T20:37:51.794Z,41.23
2023-05-04T20:40:18.522Z,41.06
2023-05-04T20:42:45.363Z,41.39
2023-05-04T20:45:12.060Z,41.51
2023-05-04T20:47:38.887Z,41.90
2023-05-04T20:50:08.157Z,41.68
2023-05-04T20:52:35.108Z,41.76
2023-05-04T20:55:02.117Z,41.32
2023-05-04T20:57:28.913Z,41.68
2023-05-04T20:59:56.622Z,42.05
2023-05-04T21:02:23.406Z,41.94
2023-05-04T21:04:50.407Z,41.90
2023-05-04T21:07:17.723Z,42.51
2023-05-04T21:09:44.534Z,42.57
2023-05-04T21:12:11.249Z,42.70
2023-05-04T21:14:37.959Z,42.54
2023-05-04T21:17:04.987Z,43.21
2023-05-04T21:19:31.716Z,42.88
2023-05-04T21:21:58.443Z,42.94
2023-05-04T21:24:25.107Z,43.09
2023-05-04T21:26:51.764Z,43.48
2023-05-04T21:29:18.468Z,43.78
2023-05-04T21:31:45.264Z,44.30
2023-05-04T21:34:12.283Z,44.33
2023-05-04T21:36:40.561Z,44.21
2023-05-04T21:39:07.651Z,44.38
2023-05-04T21:41:34.321Z,44.48
2023-05-04T21:44:01.003Z,44.60
2023-05-04T21:46:27.909Z,44.51
2023-05-04T21:48:54.586Z,44.79
2023-05-04T21:51:21.395Z,44.66
2023-05-04T21:53:48.269Z,44.93
2023-05-04T21:56:15.053Z,44.97
2023-05-04T21:58:42.263Z,45.22
2023-05-04T22:01:09.807Z,45.11
2023-05-04T22:03:36.667Z,44.95
2023-05-04T22:06:03.832Z,45.19
2023-05-04T22:08:30.617Z,45.56
2023-05-04T22:10:58.807Z,45.34
2023-05-04T22:13:26.171Z,45.68
2023-05-04T22:15:59.022Z,45.57
2023-05-04T22:18:25.840Z,45.60
2023-05-04T22:20:52.555Z,45.23
2023-05-04T22:23:19.211Z,45.40
2023-05-04T22:25:45.997Z,45.19
2023-05-04T22:28:12.646Z,45.31
2023-05-04T22:30:39.936Z,45.35
2023-05-04T22:33:06.748Z,45.43
2023-05-04T22:35:33.526Z,45.43
2023-05-04T22:38:00.200Z,45.25
2023-05-04T22:40:27.002Z,45.30
2023-05-04T22:42:53.712Z,45.60
2023-05-04T22:45:20.433Z,45.50
2023-05-04T22:47:47.273Z,45.60
2023-05-04T22:50:14.455Z,45.92
2023-05-04T22:52:41.465Z,45.19
2023-05-04T22:55:08.997Z,45.59
2023-05-04T22:57:35.967Z,45.24
2023-05-04T23:00:04.705Z,45.76
2023-05-04T23:02:31.665Z,45.88
2023-05-04T23:04:58.437Z,45.84
2023-05-04T23:07:25.356Z,45.27
2023-05-04T23:09:52.085Z,45.73
2023-05-04T23:12:18.750Z,45.80
2023-05-04T23:14:45.389Z,45.62
2023-05-04T23:17:12.099Z,45.33
2023-05-04T23:19:38.731Z,45.78
2023-05-04T23:22:05.395Z,45.88
2023-05-04T23:24:32.081Z,45.50
2023-05-04T23:26:59.346Z,45.70
2023-05-04T23:29:26.291Z,45.32
2023-05-04T23:31:53.824Z,45.80
2023-05-04T23:34:20.630Z,45.72
2023-05-04T23:36:47.362Z,45.78
2023-05-04T23:39:17.293Z,45.77
2023-05-04T23:41:44.209Z,46.07
2023-05-04T23:44:10.935Z,46.02
2023-05-04T23:46:37.632Z,46.00
2023-05-04T23:49:04.300Z,46.46
2023-05-04T23:51:30.993Z,46.69
2023-05-04T23:53:57.870Z,46.35
2023-05-04T23:56:24.555Z,46.72
2023-05-04T23:58:51.334Z,47.05
